createdAt,value
2022-12-27T00:01:18.912Z,0.20
2022-12-27T00:06:09.820Z,2.17
2022-12-27T00:10:55.108Z,0.27
2022-12-27T00:15:38.796Z,0.10
2022-12-27T00:20:23.008Z,0.00
2022-12-27T00:25:08.980Z,0.70
2022-12-27T00:29:52.730Z,0.20
2022-12-27T00:34:36.711Z,0.63
2022-12-27T00:39:23.913Z,0.10
2022-12-27T00:44:09.761Z,0.00
2022-12-27T00:48:53.581Z,0.00
2022-12-27T00:53:37.747Z,0.00
2022-12-27T00:58:21.491Z,0.00
2022-12-27T01:03:06.602Z,0.03
2022-12-27T01:07:50.639Z,0.00
2022-12-27T01:12:35.687Z,0.00
2022-12-27T01:17:19.609Z,0.70
2022-12-27T01:22:05.139Z,0.33
2022-12-27T01:26:48.979Z,1.47
2022-12-27T01:31:32.628Z,0.70
2022-12-27T01:36:19.083Z,1.10
2022-12-27T01:41:24.985Z,0.50
2022-12-27T01:46:09.135Z,0.60
2022-12-27T01:50:57.188Z,1.10
2022-12-27T01:55:45.850Z,0.10
2022-12-27T02:00:32.187Z,0.40
2022-12-27T02:05:18.800Z,2.43
2022-12-27T02:10:04.804Z,0.60
2022-12-27T02:14:50.441Z,2.73
2022-12-27T02:19:50.530Z,0.30
2022-12-27T02:24:59.021Z,2.20
2022-12-27T02:29:57.140Z,0.93
2022-12-27T02:34:48.476Z,1.80
2022-12-27T02:39:36.556Z,2.63
2022-12-27T02:44:40.769Z,2.80
2022-12-27T02:49:45.935Z,1.07
2022-12-27T02:54:46.444Z,2.00
2022-12-27T03:00:04.873Z,2.90
2022-12-27T03:05:13.636Z,0.33
2022-12-27T03:10:27.138Z,3.97
2022-12-27T03:15:39.643Z,0.90
2022-12-27T03:20:42.307Z,2.23
2022-12-27T03:25:30.188Z,0.57
2022-12-27T03:30:32.072Z,0.80
2022-12-27T03:35:21.005Z,0.70
2022-12-27T03:40:12.580Z,1.13
2022-12-27T03:44:56.456Z,0.97
2022-12-27T03:49:45.332Z,2.70
2022-12-27T03:54:33.047Z,2.77
2022-12-27T03:59:18.015Z,0.63
2022-12-27T04:04:02.348Z,0.83
2022-12-27T04:09:03.701Z,1.37
2022-12-27T04:14:05.577Z,2.40
2022-12-27T04:19:08.294Z,1.80
2022-12-27T04:24:09.408Z,0.87
2022-12-27T04:29:11.554Z,1.23
2022-12-27T04:34:13.946Z,1.80
2022-12-27T04:38:57.461Z,2.03
2022-12-27T04:43:58.481Z,2.83
2022-12-27T04:48:59.421Z,2.40
2022-12-27T04:54:02.028Z,2.90
2022-12-27T04:58:59.296Z,6.43
2022-12-27T05:03:44.081Z,3.93
2022-12-27T05:08:45.607Z,2.37
2022-12-27T05:13:47.357Z,1.17
2022-12-27T05:18:30.880Z,0.93
2022-12-27T05:23:31.798Z,2.30
2022-12-27T05:28:15.756Z,1.37
2022-12-27T05:33:00.756Z,0.30
2022-12-27T05:37:44.637Z,1.80
2022-12-27T05:42:30.199Z,0.80
2022-12-27T05:47:13.708Z,0.70
2022-12-27T05:51:58.700Z,2.17
2022-12-27T05:56:42.167Z,1.97
2022-12-27T06:01:27.241Z,4.23
2022-12-27T06:06:11.534Z,4.27
2022-12-27T06:11:05.506Z,1.10
2022-12-27T06:15:50.045Z,1.97
2022-12-27T06:20:33.568Z,2.57
2022-12-27T06:25:19.342Z,3.77
2022-12-27T06:30:05.049Z,1.60
2022-12-27T06:34:48.733Z,3.85
2022-12-27T06:39:32.262Z,3.13
2022-12-27T06:44:16.097Z,1.27
2022-12-27T06:49:01.061Z,2.50
2022-12-27T06:53:44.589Z,2.43
2022-12-27T06:58:28.192Z,2.90
2022-12-27T07:03:11.771Z,2.40
2022-12-27T07:07:56.700Z,3.03
2022-12-27T07:12:41.655Z,2.53
2022-12-27T07:17:25.287Z,4.33
2022-12-27T07:22:10.398Z,2.27
2022-12-27T07:26:55.402Z,2.63
2022-12-27T07:31:38.888Z,2.87
2022-12-27T07:36:25.435Z,2.73
2022-12-27T07:41:09.488Z,4.00
2022-12-27T07:45:55.324Z,3.97
2022-12-27T07:50:39.014Z,6.40
2022-12-27T07:55:22.689Z,3.20
2022-12-27T08:00:07.648Z,1.90
2022-12-27T08:04:52.561Z,3.00
2022-12-27T08:09:39.618Z,3.43
2022-12-27T08:14:23.181Z,4.07
2022-12-27T08:19:08.653Z,2.93
2022-12-27T08:23:53.828Z,3.60
2022-12-27T08:28:37.627Z,2.33
2022-12-27T08:33:21.216Z,7.73
2022-12-27T08:38:06.667Z,6.17
2022-12-27T08:42:51.730Z,4.70
2022-12-27T08:47:35.544Z,2.53
2022-12-27T08:52:19.381Z,2.83
2022-12-27T08:57:03.310Z,7.00
2022-12-27T09:01:48.884Z,5.33
2022-12-27T09:06:33.807Z,2.70
2022-12-27T09:11:19.627Z,5.53
2022-12-27T09:16:09.078Z,4.10
2022-12-27T09:20:54.105Z,6.03
2022-12-27T09:25:37.978Z,3.73
2022-12-27T09:30:22.193Z,4.10
2022-12-27T09:35:06.676Z,2.90
2022-12-27T09:39:51.800Z,4.67
2022-12-27T09:44:41.493Z,5.30
2022-12-27T09:49:33.029Z,4.23
2022-12-27T09:54:21.489Z,3.10
2022-12-27T09:59:14.392Z,5.13
2022-12-27T10:03:58.022Z,3.87
2022-12-27T10:08:51.976Z,2.20
2022-12-27T10:13:46.488Z,3.90
2022-12-27T10:18:40.301Z,2.87
2022-12-27T10:23:55.027Z,2.67
2022-12-27T10:28:42.397Z,5.10
2022-12-27T10:33:29.678Z,2.83
2022-12-27T10:38:14.837Z,3.77
2022-12-27T10:43:04.870Z,3.37
2022-12-27T10:47:48.586Z,3.63
2022-12-27T10:52:35.789Z,2.10
2022-12-27T11:03:34.475Z,5.50
2022-12-27T11:08:21.905Z,4.53
2022-12-27T11:13:07.596Z,4.43
2022-12-27T11:17:53.244Z,5.80
2022-12-27T11:22:45.593Z,3.90
2022-12-27T11:27:31.485Z,6.37
2022-12-27T11:32:15.638Z,2.63
2022-12-27T11:37:06.381Z,3.23
2022-12-27T11:41:54.352Z,1.70
2022-12-27T11:46:42.916Z,4.43
2022-12-27T11:51:53.264Z,3.57
2022-12-27T11:56:38.377Z,2.97
2022-12-27T12:01:47.621Z,3.07
2022-12-27T12:06:46.514Z,4.30
2022-12-27T12:11:47.435Z,2.50
2022-12-27T12:17:04.684Z,4.77
2022-12-27T12:22:03.646Z,3.50
2022-12-27T12:26:57.659Z,2.37
2022-12-27T12:32:04.414Z,3.33
2022-12-27T12:37:03.549Z,4.53
2022-12-27T12:42:01.946Z,2.83
2022-12-27T12:46:54.408Z,4.60
2022-12-27T12:52:12.421Z,5.40
2022-12-27T12:57:23.199Z,3.30
2022-12-27T13:02:28.094Z,3.07
2022-12-27T13:07:42.871Z,2.00
2022-12-27T13:12:33.402Z,1.80
2022-12-27T13:17:24.944Z,1.70
2022-12-27T13:22:16.946Z,4.13
2022-12-27T13:27:08.893Z,1.50
2022-12-27T13:31:59.122Z,2.07
2022-12-27T13:36:57.825Z,1.90
2022-12-27T13:41:55.408Z,3.20
2022-12-27T13:46:52.852Z,1.10
2022-12-27T13:51:45.950Z,1.80
2022-12-27T14:02:08.260Z,2.03
2022-12-27T14:07:09.809Z,2.23
2022-12-27T14:12:06.159Z,2.80
2022-12-27T14:17:01.351Z,1.90
2022-12-27T14:22:00.388Z,2.70
2022-12-27T14:27:16.230Z,4.10
2022-12-27T14:32:37.761Z,3.27
2022-12-27T14:37:55.327Z,3.37
2022-12-27T14:43:23.862Z,2.10
2022-12-27T14:48:37.141Z,2.93
2022-12-27T14:54:01.366Z,2.40
2022-12-27T14:59:05.407Z,2.50
2022-12-27T15:03:59.442Z,2.53
2022-12-27T15:08:58.155Z,4.33
2022-12-27T15:13:57.714Z,3.87
2022-12-27T15:19:02.129Z,2.30
2022-12-27T15:23:53.645Z,2.67
2022-12-27T15:28:54.895Z,2.37
2022-12-27T15:33:45.820Z,5.63
2022-12-27T15:38:53.905Z,3.57
2022-12-27T15:44:09.946Z,3.20
2022-12-27T15:49:31.391Z,5.67
2022-12-27T15:54:39.158Z,3.30
2022-12-27T15:59:48.406Z,5.17
2022-12-27T16:04:47.700Z,5.63
2022-12-27T16:09:39.046Z,6.67
2022-12-27T16:14:30.315Z,10.37
2022-12-27T16:19:51.075Z,7.97
2022-12-27T16:24:34.757Z,9.87
2022-12-27T16:29:19.909Z,12.90
2022-12-27T16:34:15.079Z,8.63
2022-12-27T16:39:26.440Z,8.63
2022-12-27T16:44:21.862Z,9.70
2022-12-27T16:49:35.824Z,9.97
2022-12-27T16:54:27.899Z,7.67
2022-12-27T16:59:44.650Z,8.97
2022-12-27T17:04:56.782Z,20.90
2022-12-27T17:09:45.496Z,10.73
2022-12-27T17:14:33.081Z,10.63
2022-12-27T17:19:21.316Z,3.63
2022-12-27T17:24:10.404Z,3.87
2022-12-27T17:29:03.014Z,7.10
2022-12-27T17:34:01.557Z,6.50
2022-12-27T17:38:55.908Z,8.67
2022-12-27T17:44:08.123Z,7.87
2022-12-27T17:48:56.485Z,9.13
2022-12-27T17:54:05.315Z,8.77
2022-12-27T17:58:58.067Z,8.97
2022-12-27T18:03:46.340Z,9.73
2022-12-27T18:08:34.240Z,7.90
2022-12-27T18:13:22.460Z,9.67
2022-12-27T18:18:10.210Z,6.70
2022-12-27T18:22:54.894Z,6.90
2022-12-27T18:27:39.210Z,5.73
2022-12-27T18:32:26.545Z,4.67
2022-12-27T18:37:14.602Z,5.20
2022-12-27T18:42:00.889Z,5.60
2022-12-27T18:46:45.349Z,3.70
2022-12-27T18:51:34.517Z,12.53
2022-12-27T18:56:32.621Z,10.47
2022-12-27T19:07:13.009Z,7.57
2022-12-27T19:12:01.077Z,6.67
2022-12-27T19:16:58.091Z,6.70
2022-12-27T19:21:45.078Z,9.77
2022-12-27T19:26:36.911Z,11.57
2022-12-27T19:31:24.028Z,9.57
2022-12-27T19:36:14.449Z,13.57
2022-12-27T19:41:03.885Z,10.10
2022-12-27T19:45:48.509Z,12.80
2022-12-27T19:50:35.355Z,8.47
2022-12-27T19:55:24.478Z,8.67
2022-12-27T20:00:16.895Z,12.90
2022-12-27T20:05:00.730Z,12.37
2022-12-27T20:09:46.492Z,8.70
2022-12-27T20:14:33.452Z,11.03
2022-12-27T20:19:18.344Z,15.57
2022-12-27T20:24:02.050Z,16.63
2022-12-27T20:28:49.240Z,11.97
2022-12-27T20:33:33.232Z,14.87
2022-12-27T20:38:16.896Z,14.00
2022-12-27T20:43:00.943Z,11.30
2022-12-27T20:47:46.650Z,12.13
2022-12-27T20:52:31.268Z,19.43
2022-12-27T20:57:15.736Z,17.63
2022-12-27T21:02:00.388Z,18.70
2022-12-27T21:06:45.623Z,17.77
2022-12-27T21:11:31.830Z,16.60
2022-12-27T21:16:17.726Z,12.93
2022-12-27T21:21:06.224Z,15.80
2022-12-27T21:25:51.236Z,17.77
2022-12-27T21:30:35.239Z,16.90
2022-12-27T21:35:18.877Z,20.90
2022-12-27T21:40:02.660Z,14.57
2022-12-27T21:44:47.623Z,11.73
2022-12-27T21:49:31.226Z,13.27
2022-12-27T21:54:16.409Z,12.30
2022-12-27T21:59:00.756Z,8.00
2022-12-27T22:03:47.505Z,7.23
2022-12-27T22:08:32.706Z,7.20
2022-12-27T22:13:16.490Z,9.97
2022-12-27T22:18:00.276Z,7.17
2022-12-27T22:22:45.373Z,5.23
2022-12-27T22:27:29.115Z,5.70
2022-12-27T22:32:12.847Z,7.13
2022-12-27T22:36:56.541Z,4.97
2022-12-27T22:41:41.788Z,3.03
2022-12-27T22:46:26.437Z,3.57
2022-12-27T22:51:11.205Z,3.87
2022-12-27T22:55:54.789Z,4.33
2022-12-27T23:00:40.608Z,6.10
2022-12-27T23:05:24.225Z,14.73
2022-12-27T23:10:09.432Z,17.90
2022-12-27T23:14:52.966Z,15.53
2022-12-27T23:19:38.043Z,14.13
2022-12-27T23:24:21.731Z,12.67
2022-12-27T23:29:06.141Z,11.33
2022-12-27T23:33:50.213Z,10.13
2022-12-27T23:38:35.390Z,9.87
2022-12-27T23:43:51.074Z,7.67
2022-12-27T23:48:23.955Z,9.53
2022-12-27T23:53:07.912Z,14.93
2022-12-27T23:57:53.356Z,12.57
